African Highway — 3EOD8 — position and weather

sailwx.info

Track history (hours):
 
Tides and Currents Weather Stations Pressure Air Temp Water Temp Dewpoint Dewpoint Depression Visibility Wind Speed Wind Dir Waves Ship Positions

African Highway

Last reported at 2016-Jun-26 18:33 UTC. Time now 2016-Jun-26 19:14 UTC.
Position N 53°33' E 004°55'.

Length 154.5 m; beam 27.6 m.

Type: Ship. MMSI: 353633000.

Date/timePositionNaut miles runAvg speedWind from/ knotsBaromVisibWave heightAir tempDewpointWater temp
2016-Jun-26 18:33N 53°33' E 004°55'1514.9
2016-Jun-26 17:34N 53°38' E 005°19'1514.6
2016-Jun-26 16:33N 53°42' E 005°43'1111.1
2016-Jun-26 15:34N 53°38' E 006°00'1312.7
2016-Jun-26 14:34N 53°37' E 006°21'1312.5
2016-Jun-26 13:34N 53°33' E 006°41'1312.9
2016-Jun-26 12:33N 53°24' E 006°57'8 7.9
2016-Jun-26 11:34N 53°20' E 007°08'2 1.6
2016-Jun-26 10:31N 53°20' E 007°11'0 0.0
2016-Jun-26 09:31N 53°20' E 007°11'0 0.0
2016-Jun-26 08:31N 53°20' E 007°11'0 0.0
2016-Jun-26 07:31N 53°20' E 007°11'0 0.0
2016-Jun-26 06:31N 53°20' E 007°11'0 0.0
2016-Jun-26 05:31N 53°20' E 007°11'0 0.0
2016-Jun-26 04:31N 53°20' E 007°11'0 0.0
2016-Jun-26 03:31N 53°20' E 007°11'0 0.0
2016-Jun-26 02:31N 53°20' E 007°11'0 0.0
2016-Jun-26 01:29N 53°20' E 007°11'0 0.0
2016-Jun-26 00:31N 53°20' E 007°11'0 0.0
2016-Jun-25 23:31N 53°20' E 007°11'0 0.0
2016-Jun-25 22:31N 53°20' E 007°11'0 0.0
2016-Jun-25 21:31N 53°20' E 007°11'0 0.0
2016-Jun-25 20:28N 53°20' E 007°11'0 0.0
2016-Jun-25 19:31N 53°20' E 007°11'0 0.0
2016-Jun-25 18:31N 53°20' E 007°11'0 0.0
2016-Jun-25 17:31N 53°20' E 007°11'0 0.0
2016-Jun-25 16:31N 53°20' E 007°11'0 0.0
2016-Jun-25 15:31N 53°20' E 007°11'0 0.0
2016-Jun-25 14:31N 53°20' E 007°11'0 0.0
2016-Jun-25 13:31N 53°20' E 007°11'0 0.0
2016-Jun-25 12:28N 53°20' E 007°11'0 0.0
2016-Jun-25 11:31N 53°20' E 007°11'0 0.0
2016-Jun-25 10:31N 53°20' E 007°11'0 0.0
2016-Jun-25 09:31N 53°20' E 007°11'0 0.0
2016-Jun-25 08:31N 53°20' E 007°11'0 0.0
2016-Jun-25 07:31N 53°20' E 007°11'0 0.0
2016-Jun-25 06:31N 53°20' E 007°11'0 0.0
2016-Jun-25 05:28N 53°20' E 007°11'0 0.0
2016-Jun-25 04:31N 53°20' E 007°11'0 0.0
2016-Jun-25 03:31N 53°20' E 007°11'0 0.0
2016-Jun-25 02:31N 53°20' E 007°11'0 0.0
2016-Jun-25 01:31N 53°20' E 007°11'0 0.0
2016-Jun-25 00:31N 53°20' E 007°11'0 0.0
2016-Jun-24 23:31N 53°20' E 007°11'0 0.0
2016-Jun-24 22:32N 53°20' E 007°11'0 0.0
2016-Jun-24 21:31N 53°20' E 007°11'0 0.0
2016-Jun-24 20:28N 53°20' E 007°11'0 0.0
2016-Jun-24 19:31N 53°20' E 007°11'0 0.2
2016-Jun-24 18:33N 53°20' E 007°11'7 6.8
2016-Jun-24 17:34N 53°21' E 006°59'1211.9
2016-Jun-24 16:33N 53°30' E 006°48'1212.3
2016-Jun-24 15:33N 53°37' E 006°30'10 9.8
2016-Jun-24 14:33N 53°38' E 006°14'1111.2
2016-Jun-24 13:33N 53°41' E 005°56'1414.2
2016-Jun-24 12:33N 53°50' E 005°37'1616.1
2016-Jun-24 11:33N 53°56' E 005°12'2016.3
2016-Jun-24 10:20N 53°60' E 004°38'1516.7
2016-Jun-24 09:27N 53°58' E 004°14'1516.6
2016-Jun-24 08:33N 53°56' E 003°48'1615.8
2016-Jun-24 07:32N 53°54' E 003°21'4715.9
2016-Jun-24 04:33N 54°11' E 002°06'1515.2
2016-Jun-24 03:31N 54°16' E 001°41'3414.9
2016-Jun-24 01:13N 54°28' E 000°46'1015.0
2016-Jun-24 00:33N 54°32' E 000°30'1514.8
2016-Jun-23 23:33N 54°38' E 000°07'1514.8
2016-Jun-23 22:33N 54°44' W 000°16'1514.9
2016-Jun-23 21:33N 54°51' W 000°39'1515.0
2016-Jun-23 20:33N 54°58' W 001°02'1413.5
2016-Jun-23 19:33N 55°01' W 001°25'2 1.7
2016-Jun-23 18:33N 54°59' W 001°27'0 0.0
2016-Jun-23 17:32N 54°59' W 001°27'0 0.0
2016-Jun-23 16:32N 54°59' W 001°27'0 0.0
2016-Jun-23 15:32N 54°59' W 001°27'0 0.0
2016-Jun-23 14:32N 54°59' W 001°27'0 0.0
2016-Jun-23 13:32N 54°59' W 001°27'0 0.0
2016-Jun-23 12:32N 54°59' W 001°27'0 0.0
2016-Jun-23 11:32N 54°59' W 001°27'0 0.0
2016-Jun-23 10:32N 54°59' W 001°27'0 0.0
2016-Jun-23 09:32N 54°59' W 001°27'0 0.0
2016-Jun-23 08:32N 54°59' W 001°27'0 0.0
2016-Jun-23 07:32N 54°59' W 001°27'0 0.0
2016-Jun-23 05:32N 54°59' W 001°27'0 0.0
2016-Jun-23 04:32N 54°59' W 001°27'0 0.0
2016-Jun-23 03:32N 54°59' W 001°27'0 0.0
2016-Jun-23 02:32N 54°59' W 001°27'0 0.0
2016-Jun-23 01:32N 54°59' W 001°27'0 0.0
2016-Jun-23 00:32N 54°59' W 001°27'0 0.0
2016-Jun-22 23:32N 54°59' W 001°27'0 0.0
2016-Jun-22 22:32N 54°59' W 001°27'0 0.0
2016-Jun-22 21:32N 54°59' W 001°27'0 0.0
2016-Jun-22 20:32N 54°59' W 001°27'0 0.0
2016-Jun-22 19:32N 54°59' W 001°27'0 0.0
2016-Jun-22 18:32N 54°59' W 001°27'0 0.0
2016-Jun-22 17:32N 54°59' W 001°27'0 0.0
2016-Jun-22 16:32N 54°59' W 001°27'0 0.0
2016-Jun-22 15:32N 54°59' W 001°27'0 0.0
2016-Jun-22 14:32N 54°59' W 001°27'0 0.0
2016-Jun-22 13:32N 54°59' W 001°27'0 0.0
2016-Jun-22 12:32N 54°59' W 001°27'2 2.5
2016-Jun-22 11:34N 55°01' W 001°24'7 7.0
2016-Jun-22 10:34N 55°00' W 001°12'1414.4
2016-Jun-22 09:34N 54°54' W 000°49'1615.6
2016-Jun-22 08:33N 54°47' W 000°25'1515.3
2016-Jun-22 07:34N 54°40' W 000°01'1514.8
2016-Jun-22 06:33N 54°34' E 000°22'1414.4
2016-Jun-22 05:33N 54°28' E 000°45'3314.5
2016-Jun-22 03:18N 54°14' E 001°35'1215.6
2016-Jun-22 02:34N 54°08' E 001°52'1515.3
2016-Jun-22 01:33N 54°05' E 002°18'1615.5
2016-Jun-22 00:33N 54°05' E 002°44'1515.4
2016-Jun-21 23:33N 54°04' E 003°10'3014.9
2016-Jun-21 21:33N 54°03' E 004°01'1514.6
2016-Jun-21 20:33N 54°03' E 004°26'1414.4
2016-Jun-21 19:33N 54°04' E 004°50'1111.5
2016-Jun-21 18:34N 54°02' E 005°09'1514.8
2016-Jun-21 17:33N 53°58' E 005°34'1615.5
2016-Jun-21 16:33N 53°53' E 005°59'1514.6
2016-Jun-21 15:33N 53°41' E 006°13'1413.9
2016-Jun-21 14:34N 53°36' E 006°35'1817.7
2016-Jun-21 13:33N 53°24' E 006°57'9 8.4
2016-Jun-21 12:32N 53°20' E 007°10'0 0.0
2016-Jun-21 11:32N 53°20' E 007°10'0 0.0
2016-Jun-21 10:32N 53°20' E 007°10'0 0.0
2016-Jun-21 09:32N 53°20' E 007°10'0 0.0
2016-Jun-21 08:32N 53°20' E 007°10'0 0.0
2016-Jun-21 07:32N 53°20' E 007°10'0 0.0
2016-Jun-21 04:32N 53°20' E 007°10'0 0.0
2016-Jun-21 03:32N 53°20' E 007°10'0 0.0
2016-Jun-21 02:32N 53°20' E 007°10'0 0.0
2016-Jun-21 01:32N 53°20' E 007°10'0 0.0
2016-Jun-21 00:32N 53°20' E 007°10'0 0.0
2016-Jun-20 23:32N 53°20' E 007°10'0 0.0
2016-Jun-20 22:32N 53°20' E 007°10'0 0.0
2016-Jun-20 21:32N 53°20' E 007°10'0 0.0
2016-Jun-20 20:32N 53°20' E 007°10'0 0.0
2016-Jun-20 19:32N 53°20' E 007°10'0 0.0
2016-Jun-20 18:32N 53°20' E 007°10'0 0.0
2016-Jun-20 17:32N 53°20' E 007°10'0 0.0
2016-Jun-20 16:32N 53°20' E 007°10'0 0.0
2016-Jun-20 15:32N 53°20' E 007°10'0 0.0
2016-Jun-20 14:32N 53°20' E 007°10'0 0.0
2016-Jun-20 13:32N 53°20' E 007°10'0 0.0
2016-Jun-20 12:32N 53°20' E 007°10'5 4.8
2016-Jun-20 11:34N 53°19' E 007°02'1414.0
2016-Jun-20 10:33N 53°30' E 006°47'1514.9
2016-Jun-20 09:33N 53°37' E 006°25'6 6.2
2016-Jun-20 08:33N 53°38' E 006°15'7 7.3
2016-Jun-20 07:33N 53°39' E 006°02'7 7.3
2016-Jun-20 06:34N 53°38' E 005°50'1312.8
2016-Jun-20 05:33N 53°34' E 005°30'1717.4
2016-Jun-20 04:33N 53°28' E 005°02'10014.3
2016-Jun-19 21:33N 53°37' E 002°15'1515.2
2016-Jun-19 20:33N 53°37' E 001°49'1615.4
2016-Jun-19 19:33N 53°38' E 001°23'1815.3
2016-Jun-19 18:21N 53°36' E 000°52'1316.1
2016-Jun-19 17:34N 53°33' E 000°32'1312.6
2016-Jun-19 16:33N 53°32' E 000°11'9 9.0
2016-Jun-19 15:33N 53°35' W 000°04'0 0.1
2016-Jun-19 14:32N 53°35' W 000°04'0 0.0
2016-Jun-19 13:32N 53°35' W 000°04'0 0.0
2016-Jun-19 12:31N 53°35' W 000°04'0 0.0
2016-Jun-19 11:31N 53°35' W 000°04'0 0.0
2016-Jun-19 10:31N 53°35' W 000°04'0 0.0
2016-Jun-19 09:32N 53°35' W 000°04'0 0.0
2016-Jun-19 08:32N 53°35' W 000°04'0 0.0
2016-Jun-19 07:31N 53°35' W 000°04'0 0.0
2016-Jun-19 06:31N 53°35' W 000°04'0 0.0
2016-Jun-19 05:31N 53°35' W 000°04'0 0.0
2016-Jun-19 04:33N 53°35' W 000°04'5 4.8
2016-Jun-19 03:33N 53°35' E 000°04'9 9.0
2016-Jun-19 02:34N 53°33' E 000°19'5 5.2
2016-Jun-19 01:33N 53°33' E 000°28'6 6.4
2016-Jun-19 00:34N 53°35' E 000°38'7 7.1
2016-Jun-18 23:31N 53°36' E 000°50'10 8.1
2016-Jun-18 22:19N 53°38' E 001°06'21 9.9
2016-Jun-18 20:10N 53°38' E 001°42'7 9.9
2016-Jun-18 19:27N 53°37' E 001°54'8 9.2
2016-Jun-18 18:33N 53°37' E 002°08'9 9.0
2016-Jun-18 17:33N 53°36' E 002°23'8 8.3
2016-Jun-18 16:33N 53°35' E 002°37'8 8.0
2016-Jun-18 15:33N 53°33' E 002°50'76 8.4
2016-Jun-18 06:33N 53°33' E 004°57'8 8.3
2016-Jun-18 05:33N 53°36' E 005°10'8 8.0
2016-Jun-18 04:33N 53°39' E 005°23'8 8.2
2016-Jun-18 03:33N 53°41' E 005°36'9 9.0
2016-Jun-18 02:34N 53°44' E 005°51'1010.0
2016-Jun-18 01:33N 53°47' E 006°07'6 6.1
2016-Jun-18 00:33N 53°43' E 006°15'8 8.0
2016-Jun-17 23:34N 53°37' E 006°24'1615.6
2016-Jun-17 22:34N 53°30' E 006°47'1413.7
2016-Jun-17 21:33N 53°19' E 007°01'6 5.8
2016-Jun-17 20:33N 53°20' E 007°11'0 0.0
2016-Jun-17 19:34N 53°20' E 007°11'0 0.0
2016-Jun-17 18:33N 53°20' E 007°11'0 0.0
2016-Jun-17 17:34N 53°20' E 007°11'0 0.0
2016-Jun-17 16:34N 53°20' E 007°11'0 0.0
2016-Jun-17 15:33N 53°20' E 007°11'0 0.0
2016-Jun-17 14:33N 53°20' E 007°11'0 0.0
2016-Jun-17 13:33N 53°20' E 007°11'0 0.0
2016-Jun-17 12:33N 53°20' E 007°11'0 0.0
2016-Jun-17 11:33N 53°20' E 007°11'0 0.0
2016-Jun-17 10:33N 53°20' E 007°11'0 0.0
2016-Jun-17 09:33N 53°20' E 007°11'0 0.0
2016-Jun-17 08:33N 53°20' E 007°11'0 0.0
2016-Jun-17 07:33N 53°20' E 007°11'0 0.0
2016-Jun-17 06:33N 53°20' E 007°11'0 0.0
2016-Jun-17 05:33N 53°20' E 007°11'0 0.0
2016-Jun-17 04:33N 53°20' E 007°11'0 0.0
2016-Jun-17 03:30N 53°20' E 007°11'0 0.0
2016-Jun-17 02:33N 53°20' E 007°11'0 0.0
2016-Jun-17 01:33N 53°20' E 007°11'0 0.0
2016-Jun-17 00:34N 53°20' E 007°11'3 3.1
2016-Jun-16 23:33N 53°20' E 007°06'1010.3
2016-Jun-16 22:33N 53°27' E 006°53'1212.2
2016-Jun-16 21:33N 53°35' E 006°38'1211.6
2016-Jun-16 20:33N 53°38' E 006°19'1212.5
2016-Jun-16 19:33N 53°38' E 005°58'7 6.7
2016-Jun-16 18:33N 53°45' E 005°54'  
Track history (hours):
 
Tides and Currents Weather Stations Pressure Air Temp Water Temp Dewpoint Dewpoint Depression Visibility Wind Speed Wind Dir Waves Ship Positions

African Highway

Last reported at 2016-Jun-26 18:33 UTC. Time now 2016-Jun-26 19:14 UTC.
Position N 53°33' E 004°55'.

Length 154.5 m; beam 27.6 m.

Type: Ship. MMSI: 353633000.

Date/timePositionNaut miles runAvg speedWind from/ knotsBaromVisibWave heightAir tempDewpointWater temp
2016-Jun-26 18:33N 53°33' E 004°55'1514.9
2016-Jun-26 17:34N 53°38' E 005°19'1514.6
2016-Jun-26 16:33N 53°42' E 005°43'1111.1
2016-Jun-26 15:34N 53°38' E 006°00'1312.7
2016-Jun-26 14:34N 53°37' E 006°21'1312.5
2016-Jun-26 13:34N 53°33' E 006°41'1312.9
2016-Jun-26 12:33N 53°24' E 006°57'8 7.9
2016-Jun-26 11:34N 53°20' E 007°08'2 1.6
2016-Jun-26 10:31N 53°20' E 007°11'0 0.0
2016-Jun-26 09:31N 53°20' E 007°11'0 0.0
2016-Jun-26 08:31N 53°20' E 007°11'0 0.0
2016-Jun-26 07:31N 53°20' E 007°11'0 0.0
2016-Jun-26 06:31N 53°20' E 007°11'0 0.0
2016-Jun-26 05:31N 53°20' E 007°11'0 0.0
2016-Jun-26 04:31N 53°20' E 007°11'0 0.0
2016-Jun-26 03:31N 53°20' E 007°11'0 0.0
2016-Jun-26 02:31N 53°20' E 007°11'0 0.0
2016-Jun-26 01:29N 53°20' E 007°11'0 0.0
2016-Jun-26 00:31N 53°20' E 007°11'0 0.0
2016-Jun-25 23:31N 53°20' E 007°11'0 0.0
2016-Jun-25 22:31N 53°20' E 007°11'0 0.0
2016-Jun-25 21:31N 53°20' E 007°11'0 0.0
2016-Jun-25 20:28N 53°20' E 007°11'0 0.0
2016-Jun-25 19:31N 53°20' E 007°11'0 0.0
2016-Jun-25 18:31N 53°20' E 007°11'0 0.0
2016-Jun-25 17:31N 53°20' E 007°11'0 0.0
2016-Jun-25 16:31N 53°20' E 007°11'0 0.0
2016-Jun-25 15:31N 53°20' E 007°11'0 0.0
2016-Jun-25 14:31N 53°20' E 007°11'0 0.0
2016-Jun-25 13:31N 53°20' E 007°11'0 0.0
2016-Jun-25 12:28N 53°20' E 007°11'0 0.0
2016-Jun-25 11:31N 53°20' E 007°11'0 0.0
2016-Jun-25 10:31N 53°20' E 007°11'0 0.0
2016-Jun-25 09:31N 53°20' E 007°11'0 0.0
2016-Jun-25 08:31N 53°20' E 007°11'0 0.0
2016-Jun-25 07:31N 53°20' E 007°11'0 0.0
2016-Jun-25 06:31N 53°20' E 007°11'0 0.0
2016-Jun-25 05:28N 53°20' E 007°11'0 0.0
2016-Jun-25 04:31N 53°20' E 007°11'0 0.0
2016-Jun-25 03:31N 53°20' E 007°11'0 0.0
2016-Jun-25 02:31N 53°20' E 007°11'0 0.0
2016-Jun-25 01:31N 53°20' E 007°11'0 0.0
2016-Jun-25 00:31N 53°20' E 007°11'0 0.0
2016-Jun-24 23:31N 53°20' E 007°11'0 0.0
2016-Jun-24 22:32N 53°20' E 007°11'0 0.0
2016-Jun-24 21:31N 53°20' E 007°11'0 0.0
2016-Jun-24 20:28N 53°20' E 007°11'0 0.0
2016-Jun-24 19:31N 53°20' E 007°11'0 0.2
2016-Jun-24 18:33N 53°20' E 007°11'7 6.8
2016-Jun-24 17:34N 53°21' E 006°59'1211.9
2016-Jun-24 16:33N 53°30' E 006°48'1212.3
2016-Jun-24 15:33N 53°37' E 006°30'10 9.8
2016-Jun-24 14:33N 53°38' E 006°14'1111.2
2016-Jun-24 13:33N 53°41' E 005°56'1414.2
2016-Jun-24 12:33N 53°50' E 005°37'1616.1
2016-Jun-24 11:33N 53°56' E 005°12'2016.3
2016-Jun-24 10:20N 53°60' E 004°38'1516.7
2016-Jun-24 09:27N 53°58' E 004°14'1516.6
2016-Jun-24 08:33N 53°56' E 003°48'1615.8
2016-Jun-24 07:32N 53°54' E 003°21'4715.9
2016-Jun-24 04:33N 54°11' E 002°06'1515.2
2016-Jun-24 03:31N 54°16' E 001°41'3414.9
2016-Jun-24 01:13N 54°28' E 000°46'1015.0
2016-Jun-24 00:33N 54°32' E 000°30'1514.8
2016-Jun-23 23:33N 54°38' E 000°07'1514.8
2016-Jun-23 22:33N 54°44' W 000°16'1514.9
2016-Jun-23 21:33N 54°51' W 000°39'1515.0
2016-Jun-23 20:33N 54°58' W 001°02'1413.5
2016-Jun-23 19:33N 55°01' W 001°25'2 1.7
2016-Jun-23 18:33N 54°59' W 001°27'0 0.0
2016-Jun-23 17:32N 54°59' W 001°27'0 0.0
2016-Jun-23 16:32N 54°59' W 001°27'0 0.0
2016-Jun-23 15:32N 54°59' W 001°27'0 0.0
2016-Jun-23 14:32N 54°59' W 001°27'0 0.0
2016-Jun-23 13:32N 54°59' W 001°27'0 0.0
2016-Jun-23 12:32N 54°59' W 001°27'0 0.0
2016-Jun-23 11:32N 54°59' W 001°27'0 0.0
2016-Jun-23 10:32N 54°59' W 001°27'0 0.0
2016-Jun-23 09:32N 54°59' W 001°27'0 0.0
2016-Jun-23 08:32N 54°59' W 001°27'0 0.0
2016-Jun-23 07:32N 54°59' W 001°27'0 0.0
2016-Jun-23 05:32N 54°59' W 001°27'0 0.0
2016-Jun-23 04:32N 54°59' W 001°27'0 0.0
2016-Jun-23 03:32N 54°59' W 001°27'0 0.0
2016-Jun-23 02:32N 54°59' W 001°27'0 0.0
2016-Jun-23 01:32N 54°59' W 001°27'0 0.0
2016-Jun-23 00:32N 54°59' W 001°27'0 0.0
2016-Jun-22 23:32N 54°59' W 001°27'0 0.0
2016-Jun-22 22:32N 54°59' W 001°27'0 0.0
2016-Jun-22 21:32N 54°59' W 001°27'0 0.0
2016-Jun-22 20:32N 54°59' W 001°27'0 0.0
2016-Jun-22 19:32N 54°59' W 001°27'0 0.0
2016-Jun-22 18:32N 54°59' W 001°27'0 0.0
2016-Jun-22 17:32N 54°59' W 001°27'0 0.0
2016-Jun-22 16:32N 54°59' W 001°27'0 0.0
2016-Jun-22 15:32N 54°59' W 001°27'0 0.0
2016-Jun-22 14:32N 54°59' W 001°27'0 0.0
2016-Jun-22 13:32N 54°59' W 001°27'0 0.0
2016-Jun-22 12:32N 54°59' W 001°27'2 2.5
2016-Jun-22 11:34N 55°01' W 001°24'7 7.0
2016-Jun-22 10:34N 55°00' W 001°12'1414.4
2016-Jun-22 09:34N 54°54' W 000°49'1615.6
2016-Jun-22 08:33N 54°47' W 000°25'1515.3
2016-Jun-22 07:34N 54°40' W 000°01'1514.8
2016-Jun-22 06:33N 54°34' E 000°22'1414.4
2016-Jun-22 05:33N 54°28' E 000°45'3314.5
2016-Jun-22 03:18N 54°14' E 001°35'1215.6
2016-Jun-22 02:34N 54°08' E 001°52'1515.3
2016-Jun-22 01:33N 54°05' E 002°18'1615.5
2016-Jun-22 00:33N 54°05' E 002°44'1515.4
2016-Jun-21 23:33N 54°04' E 003°10'3014.9
2016-Jun-21 21:33N 54°03' E 004°01'1514.6
2016-Jun-21 20:33N 54°03' E 004°26'1414.4
2016-Jun-21 19:33N 54°04' E 004°50'1111.5
2016-Jun-21 18:34N 54°02' E 005°09'1514.8
2016-Jun-21 17:33N 53°58' E 005°34'1615.5
2016-Jun-21 16:33N 53°53' E 005°59'1514.6
2016-Jun-21 15:33N 53°41' E 006°13'1413.9
2016-Jun-21 14:34N 53°36' E 006°35'1817.7
2016-Jun-21 13:33N 53°24' E 006°57'9 8.4
2016-Jun-21 12:32N 53°20' E 007°10'0 0.0
2016-Jun-21 11:32N 53°20' E 007°10'0 0.0
2016-Jun-21 10:32N 53°20' E 007°10'0 0.0
2016-Jun-21 09:32N 53°20' E 007°10'0 0.0
2016-Jun-21 08:32N 53°20' E 007°10'0 0.0
2016-Jun-21 07:32N 53°20' E 007°10'0 0.0
2016-Jun-21 04:32N 53°20' E 007°10'0 0.0
2016-Jun-21 03:32N 53°20' E 007°10'0 0.0
2016-Jun-21 02:32N 53°20' E 007°10'0 0.0
2016-Jun-21 01:32N 53°20' E 007°10'0 0.0
2016-Jun-21 00:32N 53°20' E 007°10'0 0.0
2016-Jun-20 23:32N 53°20' E 007°10'0 0.0
2016-Jun-20 22:32N 53°20' E 007°10'0 0.0
2016-Jun-20 21:32N 53°20' E 007°10'0 0.0
2016-Jun-20 20:32N 53°20' E 007°10'0 0.0
2016-Jun-20 19:32N 53°20' E 007°10'0 0.0
2016-Jun-20 18:32N 53°20' E 007°10'0 0.0
2016-Jun-20 17:32N 53°20' E 007°10'0 0.0
2016-Jun-20 16:32N 53°20' E 007°10'0 0.0
2016-Jun-20 15:32N 53°20' E 007°10'0 0.0
2016-Jun-20 14:32N 53°20' E 007°10'0 0.0
2016-Jun-20 13:32N 53°20' E 007°10'0 0.0
2016-Jun-20 12:32N 53°20' E 007°10'5 4.8
2016-Jun-20 11:34N 53°19' E 007°02'1414.0
2016-Jun-20 10:33N 53°30' E 006°47'1514.9
2016-Jun-20 09:33N 53°37' E 006°25'6 6.2
2016-Jun-20 08:33N 53°38' E 006°15'7 7.3
2016-Jun-20 07:33N 53°39' E 006°02'7 7.3
2016-Jun-20 06:34N 53°38' E 005°50'1312.8
2016-Jun-20 05:33N 53°34' E 005°30'1717.4
2016-Jun-20 04:33N 53°28' E 005°02'10014.3
2016-Jun-19 21:33N 53°37' E 002°15'1515.2
2016-Jun-19 20:33N 53°37' E 001°49'1615.4
2016-Jun-19 19:33N 53°38' E 001°23'1815.3
2016-Jun-19 18:21N 53°36' E 000°52'1316.1
2016-Jun-19 17:34N 53°33' E 000°32'1312.6
2016-Jun-19 16:33N 53°32' E 000°11'9 9.0
2016-Jun-19 15:33N 53°35' W 000°04'0 0.1
2016-Jun-19 14:32N 53°35' W 000°04'0 0.0
2016-Jun-19 13:32N 53°35' W 000°04'0 0.0
2016-Jun-19 12:31N 53°35' W 000°04'0 0.0
2016-Jun-19 11:31N 53°35' W 000°04'0 0.0
2016-Jun-19 10:31N 53°35' W 000°04'0 0.0
2016-Jun-19 09:32N 53°35' W 000°04'0 0.0
2016-Jun-19 08:32N 53°35' W 000°04'0 0.0
2016-Jun-19 07:31N 53°35' W 000°04'0 0.0
2016-Jun-19 06:31N 53°35' W 000°04'0 0.0
2016-Jun-19 05:31N 53°35' W 000°04'0 0.0
2016-Jun-19 04:33N 53°35' W 000°04'5 4.8
2016-Jun-19 03:33N 53°35' E 000°04'9 9.0
2016-Jun-19 02:34N 53°33' E 000°19'5 5.2
2016-Jun-19 01:33N 53°33' E 000°28'6 6.4
2016-Jun-19 00:34N 53°35' E 000°38'7 7.1
2016-Jun-18 23:31N 53°36' E 000°50'10 8.1
2016-Jun-18 22:19N 53°38' E 001°06'21 9.9
2016-Jun-18 20:10N 53°38' E 001°42'7 9.9
2016-Jun-18 19:27N 53°37' E 001°54'8 9.2
2016-Jun-18 18:33N 53°37' E 002°08'9 9.0
2016-Jun-18 17:33N 53°36' E 002°23'8 8.3
2016-Jun-18 16:33N 53°35' E 002°37'8 8.0
2016-Jun-18 15:33N 53°33' E 002°50'76 8.4
2016-Jun-18 06:33N 53°33' E 004°57'8 8.3
2016-Jun-18 05:33N 53°36' E 005°10'8 8.0
2016-Jun-18 04:33N 53°39' E 005°23'8 8.2
2016-Jun-18 03:33N 53°41' E 005°36'9 9.0
2016-Jun-18 02:34N 53°44' E 005°51'1010.0
2016-Jun-18 01:33N 53°47' E 006°07'6 6.1
2016-Jun-18 00:33N 53°43' E 006°15'8 8.0
2016-Jun-17 23:34N 53°37' E 006°24'1615.6
2016-Jun-17 22:34N 53°30' E 006°47'1413.7
2016-Jun-17 21:33N 53°19' E 007°01'6 5.8
2016-Jun-17 20:33N 53°20' E 007°11'0 0.0
2016-Jun-17 19:34N 53°20' E 007°11'0 0.0
2016-Jun-17 18:33N 53°20' E 007°11'0 0.0
2016-Jun-17 17:34N 53°20' E 007°11'0 0.0
2016-Jun-17 16:34N 53°20' E 007°11'0 0.0
2016-Jun-17 15:33N 53°20' E 007°11'0 0.0
2016-Jun-17 14:33N 53°20' E 007°11'0 0.0
2016-Jun-17 13:33N 53°20' E 007°11'0 0.0
2016-Jun-17 12:33N 53°20' E 007°11'0 0.0
2016-Jun-17 11:33N 53°20' E 007°11'0 0.0
2016-Jun-17 10:33N 53°20' E 007°11'0 0.0
2016-Jun-17 09:33N 53°20' E 007°11'0 0.0
2016-Jun-17 08:33N 53°20' E 007°11'0 0.0
2016-Jun-17 07:33N 53°20' E 007°11'0 0.0
2016-Jun-17 06:33N 53°20' E 007°11'0 0.0
2016-Jun-17 05:33N 53°20' E 007°11'0 0.0
2016-Jun-17 04:33N 53°20' E 007°11'0 0.0
2016-Jun-17 03:30N 53°20' E 007°11'0 0.0
2016-Jun-17 02:33N 53°20' E 007°11'0 0.0
2016-Jun-17 01:33N 53°20' E 007°11'0 0.0
2016-Jun-17 00:34N 53°20' E 007°11'3 3.1
2016-Jun-16 23:33N 53°20' E 007°06'1010.3
2016-Jun-16 22:33N 53°27' E 006°53'1212.2
2016-Jun-16 21:33N 53°35' E 006°38'1211.6
2016-Jun-16 20:33N 53°38' E 006°19'1212.5
2016-Jun-16 19:33N 53°38' E 005°58'7 6.7
2016-Jun-16 18:33N 53°45' E 005°54'  

Dump ship's entire track history